Time;durP1;ratioP1;P1;durP2;ratioP2;P2;SDS_P1;SDS_P2;PMS_P1;PMS_P2;Temp;Humidity;BMP_temperature;BMP_pressure;BME280_temperature;BME280_humidity;BME280_pressure;Samples;Min_cycle;Max_cycle;Signal;HPM_P1;HPM_P2
2022/12/01 00:00:23;;;;;;;28.85;13.15;;;;;;;2.23;100.00;99327.69;4199790;28;20089;-76
2022/12/01 00:02:24;;;;;;;29.23;13.85;;;;;;;2.20;100.00;99333.75;4197908;28;20051;-76
2022/12/01 00:04:24;;;;;;;23.10;12.07;;;;;;;2.20;100.00;99333.75;4201712;28;20472;-76
2022/12/01 00:06:24;;;;;;;23.58;12.48;;;;;;;2.17;100.00;99331.63;4199828;28;20188;-76
2022/12/01 00:08:25;;;;;;;24.70;12.13;;;;;;;2.16;100.00;99326.47;4202341;28;20265;-76
2022/12/01 00:10:26;;;;;;;27.38;13.38;;;;;;;2.13;100.00;99327.06;4201519;28;20054;-76
2022/12/01 00:12:28;;;;;;;28.38;13.00;;;;;;;2.11;100.00;99326.56;4198374;28;20081;-76
2022/12/01 00:14:28;;;;;;;42.45;19.85;;;;;;;2.12;100.00;99323.53;4183491;28;20051;-76
2022/12/01 00:16:29;;;;;;;37.72;19.30;;;;;;;2.14;100.00;99326.75;4201568;28;20309;-76
2022/12/01 00:18:29;;;;;;;58.95;22.38;;;;;;;2.12;100.00;99326.25;4202380;28;20040;-76
2022/12/01 00:20:32;;;;;;;48.78;22.92;;;;;;;2.11;100.00;99321.09;4202449;28;20047;-76
2022/12/01 00:22:32;;;;;;;60.47;24.00;;;;;;;2.10;100.00;99317.56;4199494;28;20043;-76
2022/12/01 00:24:32;;;;;;;55.60;23.98;;;;;;;2.08;100.00;99316.25;4202513;28;20420;-76
2022/12/01 00:26:33;;;;;;;51.72;19.77;;;;;;;2.09;100.00;99320.59;4184813;28;20511;-76
2022/12/01 00:28:33;;;;;;;53.47;22.92;;;;;;;2.05;100.00;99308.66;4202528;28;20080;-76
2022/12/01 00:30:33;;;;;;;50.95;23.33;;;;;;;2.06;100.00;99318.47;4202424;28;20087;-76
2022/12/01 00:32:34;;;;;;;43.50;21.00;;;;;;;2.05;100.00;99317.66;4200371;28;20122;-76
2022/12/01 00:34:34;;;;;;;42.42;21.17;;;;;;;2.05;100.00;99325.03;4202187;28;20495;-75
2022/12/01 00:36:34;;;;;;;33.50;17.45;;;;;;;2.03;100.00;99324.53;4203336;28;20044;-75
2022/12/01 00:38:35;;;;;;;28.08;14.90;;;;;;;2.04;100.00;99315.22;4203042;28;20372;-75
2022/12/01 00:40:35;;;;;;;28.23;14.38;;;;;;;2.05;100.00;99319.56;4203423;28;20040;-75
2022/12/01 00:42:36;;;;;;;27.42;14.95;;;;;;;2.01;100.00;99318.56;4202509;28;20494;-75
2022/12/01 00:44:36;;;;;;;29.10;13.77;;;;;;;2.00;100.00;99322.41;4203089;28;20327;-75
2022/12/01 00:46:37;;;;;;;28.83;14.73;;;;;;;2.01;100.00;99324.84;4201495;28;20048;-75
2022/12/01 00:48:37;;;;;;;25.15;13.60;;;;;;;2.00;100.00;99322.41;4200864;28;20040;-75
2022/12/01 00:50:37;;;;;;;27.15;13.30;;;;;;;2.01;100.00;99334.94;4201353;28;20113;-75
2022/12/01 00:52:38;;;;;;;24.25;11.95;;;;;;;1.98;100.00;99334.41;4199094;28;20467;-75
2022/12/01 00:54:38;;;;;;;25.17;13.02;;;;;;;1.98;100.00;99326.22;4202375;28;20046;-75
2022/12/01 00:56:38;;;;;;;26.02;13.52;;;;;;;1.99;100.00;99337.97;4202640;28;20055;-75
2022/12/01 00:58:39;;;;;;;21.92;11.70;;;;;;;1.99;100.00;99335.25;4202815;28;20087;-75
2022/12/01 01:00:39;;;;;;;25.70;12.98;;;;;;;1.99;100.00;99335.25;4203101;28;20079;-75
2022/12/01 01:02:39;;;;;;;25.45;12.00;;;;;;;1.98;100.00;99333.59;4202238;28;20127;-75
2022/12/01 01:04:40;;;;;;;24.40;12.65;;;;;;;2.00;100.00;99333.34;4203524;28;20142;-75
2022/12/01 01:06:42;;;;;;;24.27;12.25;;;;;;;2.00;100.00;99333.34;4184215;28;20088;-75
2022/12/01 01:08:42;;;;;;;22.50;11.48;;;;;;;1.98;100.00;99339.06;4202578;28;20040;-75
2022/12/01 01:10:44;;;;;;;23.92;12.05;;;;;;;1.98;100.00;99339.06;4203033;28;20640;-75
2022/12/01 01:12:45;;;;;;;26.15;12.40;;;;;;;1.98;100.00;99336.34;4201364;28;20471;-75
2022/12/01 01:14:45;;;;;;;22.88;11.45;;;;;;;1.97;100.00;99338.25;4202666;28;20089;-75
2022/12/01 01:16:46;;;;;;;23.50;12.55;;;;;;;1.96;100.00;99339.38;4202634;28;20113;-75
2022/12/01 01:18:47;;;;;;;23.17;11.38;;;;;;;1.97;100.00;99345.63;4202622;28;20469;-75
2022/12/01 01:20:57;;;;;;;23.42;11.63;;;;;;;1.98;100.00;99348.06;4202445;28;20511;-75
2022/12/01 01:22:58;;;;;;;25.05;11.93;;;;;;;1.98;100.00;99342.59;4201952;28;20032;-75
2022/12/01 01:24:58;;;;;;;23.88;12.48;;;;;;;1.98;100.00;99353.53;4202291;28;20044;-75
2022/12/01 01:26:58;;;;;;;28.98;13.52;;;;;;;1.95;100.00;99342.41;4202744;28;20564;-75
2022/12/01 01:29:01;;;;;;;25.95;12.98;;;;;;;1.97;100.00;99351.91;4202467;28;20147;-75
2022/12/01 01:31:06;;;;;;;30.75;14.98;;;;;;;1.93;100.00;99347.38;4201885;28;20153;-75
2022/12/01 01:33:06;;;;;;;35.17;17.10;;;;;;;1.92;100.00;99352.00;4200896;28;20430;-75
2022/12/01 01:35:07;;;;;;;36.63;17.75;;;;;;;1.91;100.00;99346.84;4202035;28;20039;-75
2022/12/01 01:37:07;;;;;;;37.50;17.83;;;;;;;1.91;100.00;99349.59;4203211;28;20089;-75
2022/12/01 01:39:07;;;;;;;40.33;18.15;;;;;;;1.84;100.00;99349.16;4202528;28;20036;-75
2022/12/01 01:41:09;;;;;;;33.95;17.38;;;;;;;1.82;100.00;99354.94;4202320;28;20193;-75
2022/12/01 01:43:33;;;;;;;35.03;17.40;;;;;;;1.77;100.00;99338.63;4202090;28;20051;-75
2022/12/01 01:45:34;;;;;;;38.78;18.25;;;;;;;1.74;100.00;99344.69;4201890;28;20044;-75
2022/12/01 01:47:37;;;;;;;37.67;19.10;;;;;;;1.71;100.00;99347.19;4203283;28;20074;-75
2022/12/01 01:49:39;;;;;;;35.22;18.90;;;;;;;1.67;100.00;99355.19;4201828;28;20098;-75
2022/12/01 01:51:45;;;;;;;42.78;19.27;;;;;;;1.65;100.00;99349.19;4201559;28;20048;-75
2022/12/01 01:53:47;;;;;;;37.67;18.67;;;;;;;1.63;100.00;99348.69;4201525;28;20488;-75
2022/12/01 01:55:48;;;;;;;40.95;18.98;;;;;;;1.63;100.00;99345.94;4202633;28;20241;-75
2022/12/01 01:57:48;;;;;;;38.13;19.35;;;;;;;1.63;100.00;99348.69;4184162;28;20052;-75
2022/12/01 01:59:55;;;;;;;41.97;19.20;;;;;;;1.58;100.00;99346.88;4201550;28;20269;-75
2022/12/01 02:02:01;;;;;;;43.47;19.88;;;;;;;1.56;100.00;99351.78;4202025;28;20048;-75
2022/12/01 02:04:02;;;;;;;44.30;20.00;;;;;;;1.59;100.00;99351.19;4201107;28;20472;-75
2022/12/01 02:06:05;;;;;;;43.70;18.33;;;;;;;1.56;100.00;99345.50;4202197;28;20578;-75
2022/12/01 02:08:11;;;;;;;36.58;19.13;;;;;;;1.54;100.00;99345.00;4201294;28;20140;-75
2022/12/01 02:10:13;;;;;;;39.72;19.27;;;;;;;1.54;100.00;99345.00;4184344;28;20031;-75
2022/12/01 02:12:22;;;;;;;42.95;19.02;;;;;;;1.48;100.00;99347.00;4200536;28;20058;-75
2022/12/01 02:14:44;;;;;;;42.65;18.88;;;;;;;1.52;100.00;99350.78;4201951;28;20106;-75
2022/12/01 02:17:19;;;;;;;44.60;20.00;;;;;;;1.46;100.00;99343.75;4201263;28;20051;-75
2022/12/01 02:19:34;;;;;;;42.50;20.83;;;;;;;1.40;100.00;99359.38;4201814;28;20044;-75
2022/12/01 02:21:44;;;;;;;40.92;20.98;;;;;;;1.35;100.00;99354.03;4201736;28;20063;-75
2022/12/01 02:23:56;;;;;;;44.10;19.75;;;;;;;1.28;100.00;99352.78;4201760;28;20127;-75
2022/12/01 02:26:29;;;;;;;45.50;21.27;;;;;;;1.24;100.00;99351.72;4201975;28;20036;-75
2022/12/01 02:29:00;;;;;;;42.40;20.20;;;;;;;1.20;100.00;99359.72;4201911;28;20048;-75
2022/12/01 02:31:15;;;;;;;41.15;19.95;;;;;;;1.22;100.00;99351.22;4201088;28;20040;-75
2022/12/01 02:33:52;;;;;;;42.83;21.85;;;;;;;1.22;100.00;99356.69;4201016;28;20211;-76
2022/12/01 02:36:19;;;;;;;48.17;21.38;;;;;;;1.17;100.00;99349.41;4190689;28;20048;-75
2022/12/01 02:38:46;;;;;;;49.65;22.52;;;;;;;1.08;100.00;99345.72;4172482;28;20188;-75
2022/12/01 02:41:15;;;;;;;46.58;21.98;;;;;;;0.99;100.00;99353.72;4201349;28;20052;-75
2022/12/01 02:43:18;;;;;;;52.55;24.95;;;;;;;1.02;100.00;99349.63;4169726;28;20497;-75
2022/12/01 02:45:45;;;;;;;58.22;23.58;;;;;;;0.98;100.00;99352.09;4203924;28;20044;-75
2022/12/01 02:47:46;;;;;;;52.63;22.60;;;;;;;0.93;100.00;99348.66;4196804;28;20377;-75
2022/12/01 02:49:53;;;;;;;54.85;23.63;;;;;;;0.90;100.00;99349.22;4205184;28;20516;-75
2022/12/01 02:51:56;;;;;;;54.92;24.40;;;;;;;0.86;100.00;99357.19;4205438;28;20116;-75
2022/12/01 02:54:02;;;;;;;63.53;26.10;;;;;;;0.81;100.00;99351.78;4204652;28;20071;-75
2022/12/01 02:56:06;;;;;;;58.95;25.02;;;;;;;0.80;100.00;99355.63;4204330;28;20044;-75
2022/12/01 02:58:13;;;;;;;57.47;22.67;;;;;;;0.78;100.00;99355.09;4186987;28;20294;-75
2022/12/01 03:00:15;;;;;;;60.05;26.40;;;;;;;0.76;100.00;99352.69;4204634;28;20020;-75
2022/12/01 03:02:41;;;;;;;58.42;25.67;;;;;;;0.79;100.00;99351.28;4186286;28;20507;-75
2022/12/01 03:05:08;;;;;;;61.10;23.55;;;;;;;0.77;100.00;99353.50;4204362;28;20072;-75
2022/12/01 03:07:25;;;;;;;59.15;25.15;;;;;;;0.78;100.00;99353.19;4203950;28;20040;-75
2022/12/01 03:09:45;;;;;;;61.10;28.40;;;;;;;0.70;100.00;99353.03;4204578;28;20044;-75
2022/12/01 03:11:45;;;;;;;58.35;24.58;;;;;;;0.69;100.00;99360.41;4204401;28;20051;-75
2022/12/01 03:13:51;;;;;;;61.13;25.10;;;;;;;0.73;100.00;99355.16;4204329;28;20040;-75
2022/12/01 03:15:55;;;;;;;61.47;25.50;;;;;;;0.69;100.00;99351.41;4203815;28;20490;-75
2022/12/01 03:18:05;;;;;;;60.63;25.80;;;;;;;0.62;100.00;99350.94;4204333;28;20043;-75
2022/12/01 03:20:18;;;;;;;67.68;25.90;;;;;;;0.60;100.00;99350.44;4186062;28;20083;-75
2022/12/01 03:22:25;;;;;;;68.10;25.65;;;;;;;0.58;100.00;99348.00;4204325;28;20064;-75
2022/12/01 03:24:31;;;;;;;63.38;25.25;;;;;;;0.60;100.00;99345.00;4203553;28;20055;-75
2022/12/01 03:26:35;;;;;;;67.30;27.17;;;;;;;0.59;100.00;99349.63;4203320;28;20040;-75
2022/12/01 03:28:42;;;;;;;61.60;25.65;;;;;;;0.57;100.00;99336.28;4204241;28;20071;-75
2022/12/01 03:30:45;;;;;;;59.72;24.92;;;;;;;0.62;100.00;99342.78;4203010;28;20534;-75
2022/12/01 03:32:50;;;;;;;60.65;24.33;;;;;;;0.60;100.00;99350.44;4202928;28;20067;-75
2022/12/01 03:35:04;;;;;;;63.25;26.02;;;;;;;0.54;100.00;99339.59;4203574;28;20545;-75
2022/12/01 03:37:23;;;;;;;58.92;24.77;;;;;;;0.60;100.00;99350.44;4203038;28;20036;-75
2022/12/01 03:39:33;;;;;;;56.75;23.95;;;;;;;0.53;100.00;99342.63;4204239;28;20051;-75
2022/12/01 03:41:41;;;;;;;57.95;25.35;;;;;;;0.51;100.00;99340.19;4204393;28;20211;-75
2022/12/01 03:43:49;;;;;;;62.83;25.17;;;;;;;0.54;100.00;99342.31;4203783;28;20488;-75
2022/12/01 03:46:03;;;;;;;64.03;25.27;;;;;;;0.57;100.00;99343.66;4203403;28;20044;-75
2022/12/01 03:48:04;;;;;;;64.15;25.48;;;;;;;0.61;100.00;99352.88;4204312;28;20059;-75
2022/12/01 03:50:07;;;;;;;54.50;22.95;;;;;;;0.59;100.00;99343.38;4203480;28;20024;-74
2022/12/01 03:52:10;;;;;;;61.63;26.77;;;;;;;0.61;100.00;99357.50;4186304;28;20699;-75
2022/12/01 03:54:26;;;;;;;61.03;24.17;;;;;;;0.62;100.00;99359.94;4203241;28;20388;-75
2022/12/01 03:56:32;;;;;;;64.85;24.63;;;;;;;0.60;100.00;99356.69;4204125;28;20507;-75
2022/12/01 03:58:38;;;;;;;61.28;25.88;;;;;;;0.56;100.00;99367.34;4203886;28;20040;-75
2022/12/01 04:00:40;;;;;;;62.08;24.70;;;;;;;0.55;100.00;99357.56;4202944;28;20048;-75
2022/12/01 04:02:41;;;;;;;62.90;25.52;;;;;;;0.57;100.00;99362.72;4203328;28;20162;-75
2022/12/01 04:04:41;;;;;;;65.13;25.00;;;;;;;0.55;100.00;99362.19;4204556;28;20136;-75
2022/12/01 04:06:46;;;;;;;61.03;24.83;;;;;;;0.57;100.00;99366.25;4203481;28;20032;-75
2022/12/01 04:08:46;;;;;;;67.45;26.67;;;;;;;0.56;100.00;99358.38;4199763;28;20499;-74
2022/12/01 04:10:47;;;;;;;58.15;25.38;;;;;;;0.55;100.00;99364.91;4200029;28;20090;-75
2022/12/01 04:12:47;;;;;;;63.95;27.17;;;;;;;0.52;100.00;99374.50;4179376;28;20180;-75
2022/12/01 04:14:48;;;;;;;68.43;26.83;;;;;;;0.57;100.00;99368.16;4201025;28;20040;-75
2022/12/01 04:16:48;;;;;;;63.13;25.77;;;;;;;0.54;100.00;99366.03;4201742;28;20459;-74
2022/12/01 04:18:48;;;;;;;58.63;24.77;;;;;;;0.55;100.00;99371.16;4200893;28;20124;-75
2022/12/01 04:20:49;;;;;;;64.47;27.75;;;;;;;0.59;100.00;99376.06;4201557;28;20494;-74
2022/12/01 04:22:49;;;;;;;62.28;27.27;;;;;;;0.62;100.00;99378.19;4201121;28;20136;-75
2022/12/01 04:24:49;;;;;;;69.47;28.10;;;;;;;0.63;100.00;99382.53;4202439;28;20134;-75
2022/12/01 04:26:50;;;;;;;66.45;28.02;;;;;;;0.59;100.00;99376.88;4202100;28;20040;-75
2022/12/01 04:28:50;;;;;;;80.07;28.52;;;;;;;0.53;100.00;99378.03;4202029;28;20047;-75
2022/12/01 04:30:50;;;;;;;66.05;28.10;;;;;;;0.49;100.00;99379.69;4202451;28;20046;-75
2022/12/01 04:32:51;;;;;;;72.30;28.13;;;;;;;0.44;100.00;99377.84;4201718;28;20131;-75
2022/12/01 04:34:51;;;;;;;71.80;27.80;;;;;;;0.43;100.00;99370.78;4201771;28;20157;-74
2022/12/01 04:36:52;;;;;;;68.47;26.25;;;;;;;0.43;100.00;99369.97;4202058;28;20155;-75
2022/12/01 04:38:52;;;;;;;72.97;28.77;;;;;;;0.44;100.00;99366.97;4183931;28;20063;-75
2022/12/01 04:40:52;;;;;;;68.78;28.67;;;;;;;0.45;100.00;99374.03;4202280;28;20068;-75
2022/12/01 04:42:53;;;;;;;73.10;27.23;;;;;;;0.43;100.00;99375.41;4201208;28;20044;-75
2022/12/01 04:44:53;;;;;;;68.70;27.00;;;;;;;0.44;100.00;99372.41;4200922;28;20511;-75
2022/12/01 04:46:53;;;;;;;71.68;27.25;;;;;;;0.48;100.00;99375.34;4202282;28;20797;-75
2022/12/01 04:48:54;;;;;;;65.60;27.58;;;;;;;0.44;100.00;99358.78;4202929;28;20093;-75
2022/12/01 04:50:54;;;;;;;74.03;28.45;;;;;;;0.43;100.00;99369.97;4202307;28;20036;-75
2022/12/01 04:52:54;;;;;;;75.15;28.92;;;;;;;0.44;100.00;99368.88;4201303;28;20050;-75
2022/12/01 04:54:55;;;;;;;91.03;32.05;;;;;;;0.40;100.00;99356.91;4201018;28;20071;-75
2022/12/01 04:56:55;;;;;;;87.05;32.22;;;;;;;0.39;100.00;99360.75;4201822;28;20068;-75
2022/12/01 04:58:55;;;;;;;85.47;33.15;;;;;;;0.38;100.00;99364.56;4200428;28;20063;-75
2022/12/01 05:01:04;;;;;;;68.25;27.20;;;;;;;0.45;100.00;99360.41;4198041;28;20040;-74
2022/12/01 05:03:05;;;;;;;75.57;28.75;;;;;;;0.41;100.00;99372.16;4201084;28;20311;-74
2022/12/01 05:05:05;;;;;;;80.05;28.23;;;;;;;0.42;100.00;99371.06;4200852;28;20040;-74
2022/12/01 05:07:06;;;;;;;79.93;29.50;;;;;;;0.44;100.00;99377.84;4198309;28;20036;-75
2022/12/01 05:09:07;;;;;;;76.68;28.83;;;;;;;0.49;100.00;99385.94;4200893;28;20055;-74
2022/12/01 05:11:10;;;;;;;80.90;29.23;;;;;;;0.44;100.00;99382.47;4200641;28;20043;-75
2022/12/01 05:13:11;;;;;;;80.60;30.30;;;;;;;0.43;100.00;99389.84;4200494;28;20242;-75
2022/12/01 05:15:11;;;;;;;90.00;31.77;;;;;;;0.44;100.00;99388.75;4196946;28;20040;-75
2022/12/01 05:17:12;;;;;;;64.82;28.10;;;;;;;0.52;100.00;99385.38;4199161;28;20960;-75
2022/12/01 05:21:31;;;;;;;76.00;28.75;;;;;;;0.50;100.00;99390.31;4198660;28;20055;-75
2022/12/01 05:23:35;;;;;;;89.13;31.15;;;;;;;0.49;100.00;99391.38;4201167;28;20048;-75
2022/12/01 05:25:36;;;;;;;82.70;31.10;;;;;;;0.48;100.00;99397.94;4201334;28;20125;-75
2022/12/01 05:27:36;;;;;;;90.47;30.33;;;;;;;0.49;100.00;99391.38;4197463;28;20429;-75
2022/12/01 05:29:36;;;;;;;87.47;32.28;;;;;;;0.49;100.00;99393.28;4180371;28;20052;-75
2022/12/01 05:31:38;;;;;;;80.53;30.30;;;;;;;0.51;100.00;99391.13;4198731;28;20104;-75
2022/12/01 05:33:38;;;;;;;81.65;30.23;;;;;;;0.56;100.00;99394.56;4197823;28;20040;-75
2022/12/01 05:35:39;;;;;;;82.90;30.60;;;;;;;0.56;100.00;99394.56;4198619;28;20055;-75
2022/12/01 05:37:39;;;;;;;78.20;28.20;;;;;;;0.55;100.00;99397.59;4200231;28;20417;-74
2022/12/01 05:39:39;;;;;;;80.60;29.20;;;;;;;0.53;100.00;99400.63;4201820;28;20044;-75
2022/12/01 05:41:40;;;;;;;83.90;29.88;;;;;;;0.55;100.00;99403.03;4201436;28;20380;-75
2022/12/01 05:43:40;;;;;;;84.05;31.05;;;;;;;0.55;100.00;99397.59;4197789;28;20083;-75
2022/12/01 05:45:40;;;;;;;92.28;31.83;;;;;;;0.56;100.00;99394.56;4200548;28;20128;-75
2022/12/01 05:47:41;;;;;;;75.53;29.55;;;;;;;0.51;100.00;99400.09;4197368;28;20055;-75
2022/12/01 05:49:41;;;;;;;81.05;30.83;;;;;;;0.52;100.00;99400.91;4199340;28;20101;-75
2022/12/01 05:51:42;;;;;;;79.95;30.60;;;;;;;0.53;100.00;99405.25;4200220;28;20056;-74
2022/12/01 05:53:43;;;;;;;88.05;30.90;;;;;;;0.49;100.00;99391.38;4196846;28;20558;-75
2022/12/01 05:55:44;;;;;;;98.63;32.90;;;;;;;0.49;100.00;99410.44;4200353;28;20040;-74
2022/12/01 05:57:44;;;;;;;87.43;30.25;;;;;;;0.52;100.00;99401.72;4199637;28;20127;-75
2022/12/01 05:59:45;;;;;;;90.57;31.13;;;;;;;0.51;100.00;99410.19;4200231;28;20455;-75
2022/12/01 06:01:45;;;;;;;92.50;31.40;;;;;;;0.52;100.00;99404.44;4201498;28;20535;-75
2022/12/01 06:03:45;;;;;;;86.57;30.20;;;;;;;0.53;100.00;99407.97;4201172;28;20060;-75
2022/12/01 06:05:46;;;;;;;81.55;30.20;;;;;;;0.52;100.00;99396.28;4199965;28;20072;-75
2022/12/01 06:07:46;;;;;;;85.55;30.08;;;;;;;0.53;100.00;99400.63;4199042;28;20079;-75
2022/12/01 06:09:46;;;;;;;76.32;29.45;;;;;;;0.53;100.00;99400.63;4197768;28;20080;-74
2022/12/01 06:11:47;;;;;;;84.63;30.73;;;;;;;0.55;100.00;99412.03;4200377;28;20515;-75
2022/12/01 06:13:47;;;;;;;84.32;32.30;;;;;;;0.55;100.00;99401.13;4200544;28;20124;-75
2022/12/01 06:16:02;;;;;;;84.68;30.48;;;;;;;0.54;100.00;99409.59;4201359;28;20032;-75
2022/12/01 06:18:02;;;;;;;75.53;29.67;;;;;;;0.53;100.00;99400.63;4203920;28;20107;-74
2022/12/01 06:20:03;;;;;;;77.95;30.35;;;;;;;0.55;100.00;99408.50;4204774;28;20016;-75
2022/12/01 06:22:04;;;;;;;74.55;28.80;;;;;;;0.53;100.00;99399.81;4204041;28;20325;-74
2022/12/01 06:24:04;;;;;;;75.47;28.92;;;;;;;0.56;100.00;99413.63;4203926;28;20491;-75
2022/12/01 06:26:05;;;;;;;74.82;29.83;;;;;;;0.54;100.00;99407.69;4201562;28;20284;-75
2022/12/01 06:28:05;;;;;;;76.38;28.25;;;;;;;0.54;100.00;99404.97;4203395;28;20052;-75
2022/12/01 06:30:06;;;;;;;80.85;28.80;;;;;;;0.54;100.00;99407.69;4203888;28;20054;-74
2022/12/01 06:32:06;;;;;;;74.70;28.63;;;;;;;0.57;100.00;99417.16;4204298;28;20031;-75
2022/12/01 06:34:07;;;;;;;71.55;27.70;;;;;;;0.60;100.00;99415.81;4179202;27;20479;-75
2022/12/01 06:36:09;;;;;;;75.03;27.33;;;;;;;0.60;100.00;99413.09;4157466;27;20411;-75
2022/12/01 06:38:09;;;;;;;67.90;26.83;;;;;;;0.63;100.00;99418.75;4203297;28;20283;-74
2022/12/01 06:40:10;;;;;;;77.82;26.35;;;;;;;0.63;100.00;99415.22;4204698;28;20058;-75
2022/12/01 06:42:11;;;;;;;67.88;26.80;;;;;;;0.64;100.00;99423.09;4203305;28;20028;-75
2022/12/01 06:44:11;;;;;;;62.40;26.55;;;;;;;0.64;100.00;99427.72;4203585;28;20030;-75
2022/12/01 06:46:12;;;;;;;76.75;28.88;;;;;;;0.61;100.00;99428.31;4200589;28;20024;-75
2022/12/01 06:48:12;;;;;;;69.25;27.60;;;;;;;0.64;100.00;99433.19;4203321;28;20444;-74
2022/12/01 06:50:12;;;;;;;58.47;26.05;;;;;;;0.62;100.00;99438.91;4203811;28;20481;-75
2022/12/01 06:52:13;;;;;;;71.93;28.58;;;;;;;0.64;100.00;99439.44;4203560;28;20016;-75
2022/12/01 06:54:14;;;;;;;68.95;27.27;;;;;;;0.64;100.00;99438.63;4202975;28;20020;-75
2022/12/01 06:56:16;;;;;;;64.43;26.83;;;;;;;0.64;100.00;99439.44;4201983;28;20034;-75
2022/12/01 06:58:17;;;;;;;61.10;26.42;;;;;;;0.65;100.00;99440.25;4203245;28;20376;-75
2022/12/01 07:00:17;;;;;;;73.63;27.77;;;;;;;0.65;100.00;99441.03;4203728;28;20028;-75
2022/12/01 07:02:18;;;;;;;72.18;28.30;;;;;;;0.68;100.00;99445.94;4202851;28;20115;-75
2022/12/01 07:04:18;;;;;;;79.25;30.75;;;;;;;0.66;100.00;99444.59;4202110;28;20026;-75
2022/12/01 07:06:19;;;;;;;68.25;26.55;;;;;;;0.67;100.00;99446.22;4204300;28;20452;-74
2022/12/01 07:08:19;;;;;;;77.47;28.55;;;;;;;0.66;100.00;99445.41;4204480;28;20043;-75
2022/12/01 07:10:20;;;;;;;72.70;27.52;;;;;;;0.68;100.00;99450.56;4203759;28;20173;-75
2022/12/01 07:12:20;;;;;;;79.38;30.20;;;;;;;0.68;100.00;99459.56;4203908;28;20675;-75
2022/12/01 07:14:25;;;;;;;80.05;28.40;;;;;;;0.68;100.00;99458.75;4204125;28;20209;-75
2022/12/01 07:16:25;;;;;;;76.07;28.70;;;;;;;0.66;100.00;99453.56;4185026;28;20040;-75
2022/12/01 07:18:26;;;;;;;71.03;28.13;;;;;;;0.66;100.00;99456.28;4204027;28;20435;-75
2022/12/01 07:20:26;;;;;;;71.40;27.02;;;;;;;0.65;100.00;99445.69;4204033;28;20044;-75
2022/12/01 07:22:29;;;;;;;65.03;26.27;;;;;;;0.67;100.00;99457.13;4200935;28;20052;-75
2022/12/01 07:24:30;;;;;;;71.30;27.13;;;;;;;0.66;100.00;99458.19;4203468;28;20040;-75
2022/12/01 07:26:30;;;;;;;71.15;26.67;;;;;;;0.67;100.00;99459.84;4203410;28;20074;-75
2022/12/01 07:28:31;;;;;;;72.63;27.10;;;;;;;0.67;100.00;99462.56;4185289;28;20090;-75
2022/12/01 07:30:31;;;;;;;64.95;25.95;;;;;;;0.66;100.00;99461.72;4204074;28;20048;-75
2022/12/01 07:32:31;;;;;;;70.75;28.70;;;;;;;0.68;100.00;99464.19;4202959;28;20052;-75
2022/12/01 07:34:32;;;;;;;68.32;26.00;;;;;;;0.67;100.00;99466.09;4203604;28;20074;-75
2022/12/01 07:36:32;;;;;;;67.07;26.17;;;;;;;0.71;100.00;99463.59;4203821;28;20510;-74
2022/12/01 07:38:33;;;;;;;73.25;26.50;;;;;;;0.68;100.00;99459.56;4203593;28;20277;-76
2022/12/01 07:40:34;;;;;;;69.00;25.13;;;;;;;0.71;100.00;99466.31;4185464;28;20052;-75
2022/12/01 07:42:34;;;;;;;65.00;24.85;;;;;;;0.73;100.00;99469.56;4202161;28;20544;-75
2022/12/01 07:44:34;;;;;;;66.30;24.42;;;;;;;0.72;100.00;99473.41;4203283;28;20040;-75
2022/12/01 07:46:35;;;;;;;63.30;24.73;;;;;;;0.75;100.00;99470.94;4201903;28;20151;-75
2022/12/01 07:48:37;;;;;;;64.00;26.38;;;;;;;0.72;100.00;99476.94;4204408;28;20147;-74
2022/12/01 07:50:37;;;;;;;68.67;24.90;;;;;;;0.72;100.00;99478.84;4204325;28;20319;-75
2022/12/01 07:52:38;;;;;;;63.83;22.58;;;;;;;0.75;100.00;99479.09;4201244;28;20083;-75
2022/12/01 07:54:38;;;;;;;65.88;25.90;;;;;;;0.71;100.00;99471.78;4201427;28;20043;-74
2022/12/01 07:56:39;;;;;;;75.38;26.85;;;;;;;0.73;100.00;99475.03;4204122;28;20759;-75
2022/12/01 07:58:40;;;;;;;64.45;23.55;;;;;;;0.74;100.00;99476.63;4204008;28;20773;-75
2022/12/01 08:00:40;;;;;;;74.05;25.75;;;;;;;0.76;100.00;99475.28;4204318;28;20308;-75
2022/12/01 08:02:40;;;;;;;70.53;26.38;;;;;;;0.73;100.00;99485.91;4202874;28;20395;-75
2022/12/01 08:04:41;;;;;;;72.93;25.70;;;;;;;0.75;100.00;99481.00;4204146;28;20048;-75
2022/12/01 08:06:42;;;;;;;76.38;29.77;;;;;;;0.74;100.00;99477.44;4203603;28;20040;-75
2022/12/01 08:08:42;;;;;;;75.63;27.58;;;;;;;0.71;100.00;99482.66;4203179;28;20062;-75
2022/12/01 08:10:42;;;;;;;73.93;24.23;;;;;;;0.71;100.00;99472.59;4202633;28;20079;-75
2022/12/01 08:12:45;;;;;;;74.70;27.05;;;;;;;0.68;100.00;99478.63;4202931;28;20358;-75
2022/12/01 08:14:45;;;;;;;72.32;25.05;;;;;;;0.69;100.00;99484.88;4203418;28;20496;-75
2022/12/01 08:16:47;;;;;;;81.18;27.75;;;;;;;0.70;100.00;99479.13;4203557;28;20048;-75
2022/12/01 08:18:48;;;;;;;87.18;30.33;;;;;;;0.68;100.00;99484.06;4203812;28;20503;-75
2022/12/01 08:20:50;;;;;;;82.60;27.45;;;;;;;0.68;100.00;99478.63;4203303;28;20451;-75
2022/12/01 08:22:50;;;;;;;78.40;29.33;;;;;;;0.68;100.00;99486.78;4202541;28;20036;-75
2022/12/01 08:24:51;;;;;;;79.90;28.58;;;;;;;0.69;100.00;99484.88;4203336;28;20040;-75
2022/12/01 08:26:51;;;;;;;81.93;28.13;;;;;;;0.67;100.00;99482.44;4203744;28;20044;-75
2022/12/01 08:28:51;;;;;;;79.78;26.55;;;;;;;0.67;100.00;99476.19;4203355;28;20383;-75
2022/12/01 08:30:52;;;;;;;77.05;27.20;;;;;;;0.67;100.00;99489.81;4185426;28;20044;-75
2022/12/01 08:32:54;;;;;;;73.45;26.02;;;;;;;0.67;100.00;99493.34;4202935;28;20058;-75
2022/12/01 08:34:54;;;;;;;79.30;30.00;;;;;;;0.67;100.00;99481.63;4202680;28;20036;-75
2022/12/01 08:36:54;;;;;;;88.85;28.52;;;;;;;0.68;100.00;99484.06;4203354;28;20048;-75
2022/12/01 08:38:55;;;;;;;84.32;27.45;;;;;;;0.67;100.00;99487.09;4203285;28;20359;-75
2022/12/01 08:41:06;;;;;;;95.40;32.05;;;;;;;0.65;100.00;99484.63;4203086;28;20807;-75
2022/12/01 08:43:07;;;;;;;85.82;26.45;;;;;;;0.66;100.00;99485.44;4202394;28;20055;-75
2022/12/01 08:45:08;;;;;;;77.32;24.23;;;;;;;0.64;100.00;99491.19;4203045;28;20032;-75
2022/12/01 08:47:08;;;;;;;77.20;27.48;;;;;;;0.63;100.00;99489.56;4203258;28;20605;-75
2022/12/01 08:49:08;;;;;;;72.68;25.45;;;;;;;0.60;100.00;99501.03;4202819;28;20384;-75
2022/12/01 08:51:15;;;;;;;79.18;25.98;;;;;;;0.61;100.00;99499.13;4202618;28;20044;-75
2022/12/01 08:53:15;;;;;;;69.03;25.65;;;;;;;0.60;100.00;99497.50;4202357;28;20101;-75
2022/12/01 08:55:15;;;;;;;68.70;24.98;;;;;;;0.57;100.00;99502.41;4203067;28;20051;-75
2022/12/01 08:57:16;;;;;;;75.15;23.77;;;;;;;0.57;100.00;99501.59;4203038;28;20075;-75
2022/12/01 08:59:16;;;;;;;88.88;29.75;;;;;;;0.54;100.00;99499.47;4202943;28;20043;-76
2022/12/01 09:01:17;;;;;;;79.45;26.75;;;;;;;0.54;100.00;99504.91;4202340;28;20488;-75
2022/12/01 09:03:18;;;;;;;77.45;24.83;;;;;;;0.57;100.00;99496.16;4203362;28;20372;-75
2022/12/01 09:05:18;;;;;;;72.82;28.40;;;;;;;0.55;100.00;99498.34;4202744;28;20219;-75
2022/12/01 09:07:19;;;;;;;73.60;28.27;;;;;;;0.57;100.00;99493.44;4201944;28;20043;-74
2022/12/01 09:09:22;;;;;;;75.05;26.50;;;;;;;0.57;100.00;99494.22;4202887;28;20041;-75
2022/12/01 09:11:23;;;;;;;69.75;25.30;;;;;;;0.59;100.00;99499.41;4202404;28;20048;-75
2022/12/01 09:13:24;;;;;;;79.50;27.77;;;;;;;0.57;100.00;99504.31;4201807;28;20047;-75
2022/12/01 09:15:24;;;;;;;84.28;28.88;;;;;;;0.55;100.00;99503.81;4201944;28;20040;-75
2022/12/01 09:17:24;;;;;;;79.93;24.48;;;;;;;0.55;100.00;99499.16;4202021;28;20066;-75
2022/12/01 09:19:27;;;;;;;88.32;28.58;;;;;;;0.55;100.00;99507.34;4202166;28;20654;-75
2022/12/01 09:21:30;;;;;;;78.72;27.92;;;;;;;0.57;100.00;99512.50;4202639;28;20105;-75
2022/12/01 09:23:30;;;;;;;;;;;;;;;0.56;100.00;99513.59;4201986;28;20055;-75
2022/12/01 09:25:32;;;;;;;83.63;26.27;;;;;;;0.56;100.00;99513.59;4202253;28;19920;-74
2022/12/01 09:27:32;;;;;;;82.57;25.60;;;;;;;0.57;100.00;99509.75;4203033;28;20071;-74